createdAt,value
2022-12-18T00:00:45.384Z,56.58
2022-12-18T00:05:51.875Z,56.85
2022-12-18T00:10:53.684Z,57.25
2022-12-18T00:16:06.371Z,57.25
2022-12-18T00:21:10.542Z,57.34
2022-12-18T00:26:16.152Z,57.37
2022-12-18T00:31:21.388Z,57.33
2022-12-18T00:36:26.918Z,57.12
2022-12-18T00:41:47.679Z,57.04
2022-12-18T00:46:50.020Z,57.05
2022-12-18T00:51:51.953Z,56.98
2022-12-18T00:56:53.987Z,57.13
2022-12-18T01:01:56.084Z,56.96
2022-12-18T01:06:57.935Z,57.42
2022-12-18T01:11:59.789Z,57.41
2022-12-18T01:17:03.817Z,57.22
2022-12-18T01:22:08.262Z,57.09
2022-12-18T01:27:10.604Z,56.87
2022-12-18T01:32:12.521Z,56.82
2022-12-18T01:37:14.831Z,56.93
2022-12-18T01:42:17.411Z,56.79
2022-12-18T01:47:25.069Z,56.79
2022-12-18T01:52:30.437Z,57.13
2022-12-18T01:57:32.826Z,57.30
2022-12-18T02:02:35.023Z,57.05
2022-12-18T02:07:58.135Z,57.55
2022-12-18T02:13:21.421Z,56.86
2022-12-18T02:18:30.836Z,57.01
2022-12-18T02:23:52.893Z,56.91
2022-12-18T02:29:08.746Z,56.67
2022-12-18T02:34:13.570Z,56.55
2022-12-18T02:39:17.014Z,56.44
2022-12-18T02:44:31.539Z,56.41
2022-12-18T02:49:54.497Z,56.34
2022-12-18T02:55:31.677Z,56.08
2022-12-18T03:00:38.762Z,56.06
2022-12-18T03:06:13.396Z,56.33
2022-12-18T03:11:16.283Z,56.48
2022-12-18T03:16:32.290Z,56.53
2022-12-18T03:21:41.404Z,56.69
2022-12-18T03:26:47.389Z,56.89
2022-12-18T03:31:55.206Z,56.72
2022-12-18T03:36:57.423Z,56.59
2022-12-18T03:42:13.557Z,56.10
2022-12-18T03:48:01.636Z,56.79
2022-12-18T03:53:34.257Z,56.56
2022-12-18T03:58:39.258Z,56.64
2022-12-18T04:03:53.267Z,56.86
2022-12-18T04:08:56.144Z,56.43
2022-12-18T04:14:04.685Z,56.54
2022-12-18T04:19:09.302Z,56.50
2022-12-18T04:24:15.339Z,56.19
2022-12-18T04:29:26.613Z,56.61
2022-12-18T04:34:28.882Z,56.36
2022-12-18T04:39:31.584Z,56.70
2022-12-18T04:44:39.117Z,56.45
2022-12-18T04:49:41.016Z,56.47
2022-12-18T04:54:43.034Z,56.53
2022-12-18T04:59:45.578Z,56.89
2022-12-18T05:04:47.378Z,56.71
2022-12-18T05:09:49.187Z,57.30
2022-12-18T05:14:51.013Z,56.49
2022-12-18T05:19:52.814Z,56.53
2022-12-18T05:24:54.598Z,55.86
2022-12-18T05:29:56.383Z,56.31
2022-12-18T05:34:58.355Z,55.81
2022-12-18T05:40:00.351Z,56.40
2022-12-18T05:45:02.184Z,56.55
2022-12-18T05:50:04.333Z,56.56
2022-12-18T05:55:06.315Z,56.14
2022-12-18T06:00:08.902Z,56.18
2022-12-18T06:05:14.057Z,56.47
2022-12-18T06:10:15.910Z,55.89
2022-12-18T06:15:18.121Z,56.16
2022-12-18T06:20:20.341Z,55.32
2022-12-18T06:25:22.389Z,55.60
2022-12-18T06:30:24.255Z,55.91
2022-12-18T06:35:26.068Z,56.08
2022-12-18T06:40:27.990Z,55.74
2022-12-18T06:45:30.068Z,55.47
2022-12-18T06:50:32.005Z,55.29
2022-12-18T06:55:33.956Z,55.84
2022-12-18T07:00:36.000Z,56.27
2022-12-18T07:05:42.022Z,56.10
2022-12-18T07:10:47.458Z,56.09
2022-12-18T07:15:50.247Z,56.33
2022-12-18T07:20:52.114Z,56.22
2022-12-18T07:25:54.151Z,56.31
2022-12-18T07:30:55.953Z,56.40
2022-12-18T07:36:00.222Z,56.11
2022-12-18T07:41:07.485Z,55.90
2022-12-18T07:46:10.976Z,56.31
2022-12-18T07:51:15.409Z,55.91
2022-12-18T07:56:27.217Z,55.75
2022-12-18T08:01:29.894Z,55.71
2022-12-18T08:06:31.970Z,55.58
2022-12-18T08:11:33.781Z,55.90
2022-12-18T08:16:35.731Z,55.78
2022-12-18T08:21:38.131Z,55.83
2022-12-18T08:26:39.973Z,56.06
2022-12-18T08:31:42.317Z,56.04
2022-12-18T08:36:44.650Z,55.89
2022-12-18T08:42:10.126Z,56.01
2022-12-18T08:47:12.253Z,55.84
2022-12-18T08:52:16.838Z,55.58
2022-12-18T08:57:19.145Z,55.90
2022-12-18T09:02:21.075Z,55.77
2022-12-18T09:07:22.997Z,55.59
2022-12-18T09:12:24.830Z,55.37
2022-12-18T09:17:27.367Z,55.85
2022-12-18T09:22:29.195Z,55.90
2022-12-18T09:27:30.979Z,55.82
2022-12-18T09:32:32.790Z,56.09
2022-12-18T09:37:34.627Z,56.48
2022-12-18T09:42:36.483Z,55.78
2022-12-18T09:47:41.668Z,55.57
2022-12-18T09:52:49.244Z,55.72
2022-12-18T09:57:56.153Z,55.81
2022-12-18T10:03:04.638Z,55.28
2022-12-18T10:08:24.650Z,55.67
2022-12-18T10:13:42.204Z,55.66
2022-12-18T10:19:08.761Z,55.17
2022-12-18T10:24:27.830Z,55.34
2022-12-18T10:29:29.857Z,55.80
2022-12-18T10:34:31.787Z,55.48
2022-12-18T10:39:33.586Z,55.35
2022-12-18T10:44:35.464Z,55.46
2022-12-18T10:49:38.605Z,55.39
2022-12-18T10:54:40.465Z,55.06
2022-12-18T11:00:25.637Z,55.00
2022-12-18T11:05:31.923Z,55.04
2022-12-18T11:10:38.940Z,54.93
2022-12-18T11:15:42.607Z,55.22
2022-12-18T11:20:58.645Z,54.86
2022-12-18T11:26:03.714Z,54.97
2022-12-18T11:31:27.252Z,54.78
2022-12-18T11:36:40.556Z,55.21
2022-12-18T11:42:10.744Z,54.65
2022-12-18T11:47:30.765Z,54.56
2022-12-18T11:52:41.607Z,54.57
2022-12-18T11:57:54.993Z,54.72
2022-12-18T12:03:05.764Z,54.90
2022-12-18T12:08:32.869Z,54.57
2022-12-18T12:13:42.999Z,54.64
2022-12-18T12:18:54.007Z,54.85
2022-12-18T12:24:23.700Z,54.40
2022-12-18T12:30:06.750Z,54.77
2022-12-18T12:35:19.370Z,54.31
2022-12-18T12:40:51.414Z,54.59
2022-12-18T12:46:13.925Z,54.49
2022-12-18T12:51:37.729Z,51.22
2022-12-18T12:57:02.776Z,48.15
2022-12-18T13:02:18.372Z,47.62
2022-12-18T13:07:53.073Z,45.88
2022-12-18T13:12:58.917Z,46.76
2022-12-18T13:18:14.209Z,47.81
2022-12-18T13:23:25.349Z,48.62
2022-12-18T13:28:46.417Z,49.04
2022-12-18T13:34:24.583Z,50.48
2022-12-18T13:39:12.040Z,51.09
2022-12-18T13:44:26.603Z,51.01
2022-12-18T13:49:39.151Z,50.90
2022-12-18T13:54:43.234Z,51.32
2022-12-18T13:59:44.972Z,51.33
2022-12-18T14:04:48.037Z,51.25
2022-12-18T14:10:12.125Z,51.69
2022-12-18T14:15:26.098Z,51.96
2022-12-18T14:20:30.646Z,51.81
2022-12-18T14:25:33.826Z,51.90
2022-12-18T14:30:44.098Z,51.86
2022-12-18T14:36:01.772Z,51.85
2022-12-18T14:41:07.506Z,52.00
2022-12-18T14:46:34.046Z,51.93
2022-12-18T14:51:37.470Z,51.93
2022-12-18T14:56:48.981Z,52.21
2022-12-18T15:02:06.086Z,52.03
2022-12-18T15:07:17.291Z,52.39
2022-12-18T15:12:43.768Z,52.55
2022-12-18T15:17:45.563Z,52.32
2022-12-18T15:22:48.783Z,52.13
2022-12-18T15:27:50.629Z,52.63
2022-12-18T15:32:53.891Z,52.31
2022-12-18T15:37:55.778Z,52.69
2022-12-18T15:43:15.997Z,52.64
2022-12-18T15:48:23.720Z,52.29
2022-12-18T15:53:34.950Z,52.30
2022-12-18T15:58:36.726Z,52.53
2022-12-18T16:03:39.105Z,52.55
2022-12-18T16:08:41.125Z,52.39
2022-12-18T16:13:43.649Z,52.84
2022-12-18T16:18:45.715Z,52.94
2022-12-18T16:23:47.537Z,52.60
2022-12-18T16:28:49.356Z,53.12
2022-12-18T16:33:51.100Z,53.00
2022-12-18T16:38:52.887Z,53.12
2022-12-18T16:43:55.228Z,53.24
2022-12-18T16:48:59.822Z,53.04
2022-12-18T16:54:06.440Z,52.96
2022-12-18T16:59:12.843Z,53.05
2022-12-18T17:04:15.273Z,52.99
2022-12-18T17:09:37.194Z,53.20
2022-12-18T17:14:39.105Z,53.31
2022-12-18T17:19:41.159Z,53.20
2022-12-18T17:24:43.624Z,53.44
2022-12-18T17:29:48.430Z,53.01
2022-12-18T17:34:50.694Z,53.44
2022-12-18T17:39:53.523Z,53.33
2022-12-18T17:44:55.534Z,53.39
2022-12-18T17:49:57.370Z,53.26
2022-12-18T17:54:59.299Z,53.29
2022-12-18T18:00:01.163Z,53.35
2022-12-18T18:05:03.015Z,53.51
2022-12-18T18:10:06.614Z,53.44
2022-12-18T18:15:09.086Z,53.52
2022-12-18T18:20:11.840Z,53.33
2022-12-18T18:25:17.189Z,53.69
2022-12-18T18:30:23.328Z,54.04
2022-12-18T18:35:52.929Z,53.92
2022-12-18T18:40:47.291Z,53.91
2022-12-18T18:45:49.115Z,53.68
2022-12-18T18:51:05.171Z,53.60
2022-12-18T19:01:30.150Z,53.63
2022-12-18T19:06:32.345Z,54.24
2022-12-18T19:11:54.258Z,54.07
2022-12-18T19:16:56.226Z,53.84
2022-12-18T19:21:58.962Z,54.14
2022-12-18T19:27:03.070Z,54.08
2022-12-18T19:32:05.848Z,54.54
2022-12-18T19:37:07.900Z,54.32
2022-12-18T19:42:10.104Z,54.34
2022-12-18T19:47:14.829Z,54.28
2022-12-18T19:52:18.473Z,54.63
2022-12-18T19:57:20.391Z,54.47
2022-12-18T20:02:22.580Z,54.54
2022-12-18T20:07:26.536Z,54.59
2022-12-18T20:12:28.575Z,54.03
2022-12-18T20:17:33.286Z,54.53
2022-12-18T20:22:35.753Z,54.17
2022-12-18T20:27:37.657Z,54.53
2022-12-18T20:32:39.431Z,54.26
2022-12-18T20:37:43.813Z,54.27
2022-12-18T20:42:50.424Z,53.89
2022-12-18T20:47:57.280Z,53.81
2022-12-18T20:52:58.979Z,54.27
2022-12-18T20:58:00.651Z,53.92
2022-12-18T21:03:02.379Z,54.33
2022-12-18T21:08:04.843Z,54.07
2022-12-18T21:13:08.460Z,53.98
2022-12-18T21:18:11.936Z,53.49
2022-12-18T21:23:16.832Z,53.79
2022-12-18T21:28:18.809Z,53.27
2022-12-18T21:33:20.765Z,53.19
2022-12-18T21:38:22.448Z,53.27
2022-12-18T21:43:42.862Z,53.28
2022-12-18T21:48:44.583Z,52.86
2022-12-18T21:53:46.268Z,52.47
2022-12-18T21:58:55.378Z,52.67
2022-12-18T22:03:59.118Z,52.90
2022-12-18T22:09:00.971Z,52.57
2022-12-18T22:14:02.757Z,52.72
2022-12-18T22:19:04.507Z,52.62
2022-12-18T22:24:10.579Z,52.51
2022-12-18T22:29:37.189Z,52.42
2022-12-18T22:34:39.601Z,52.75
2022-12-18T22:39:41.357Z,52.21
2022-12-18T22:44:43.624Z,52.48
2022-12-18T22:49:45.428Z,52.06
2022-12-18T22:54:47.170Z,51.97
2022-12-18T22:59:50.072Z,52.34
2022-12-18T23:04:52.256Z,52.28
2022-12-18T23:09:59.599Z,52.06
2022-12-18T23:15:03.625Z,51.64
2022-12-18T23:20:05.909Z,51.78
2022-12-18T23:25:08.215Z,51.50
2022-12-18T23:30:10.565Z,51.28
2022-12-18T23:35:14.270Z,51.59
2022-12-18T23:40:17.999Z,51.57
2022-12-18T23:45:19.741Z,51.58
2022-12-18T23:50:22.747Z,51.63
2022-12-18T23:55:32.563Z,52.01
